sensor_id;sensor_type;location;lat;lon;timestamp;pressure;altitude;pressure_sealevel;temperature;humidity
40908;BME280;51055;59.436;24.778;2023-04-15T00:01:11;102452.72;;;3.11;52.84
40908;BME280;51055;59.436;24.778;2023-04-15T00:03:40;102456.25;;;3.10;52.90
40908;BME280;51055;59.436;24.778;2023-04-15T00:06:08;102455.50;;;3.04;53.32
40908;BME280;51055;59.436;24.778;2023-04-15T00:08:36;102456.47;;;2.98;53.07
40908;BME280;51055;59.436;24.778;2023-04-15T00:11:04;102454.72;;;3.00;53.55
40908;BME280;51055;59.436;24.778;2023-04-15T00:13:32;102447.72;;;3.01;53.38
40908;BME280;51055;59.436;24.778;2023-04-15T00:16:03;102457.34;;;2.99;52.68
40908;BME280;51055;59.436;24.778;2023-04-15T00:18:31;102455.59;;;2.98;53.16
40908;BME280;51055;59.436;24.778;2023-04-15T00:20:59;102452.22;;;2.93;53.00
40908;BME280;51055;59.436;24.778;2023-04-15T00:23:27;102465.34;;;2.91;53.24
40908;BME280;51055;59.436;24.778;2023-04-15T00:25:55;102460.09;;;2.94;52.95
40908;BME280;51055;59.436;24.778;2023-04-15T00:28:23;102452.22;;;2.93;53.04
40908;BME280;51055;59.436;24.778;2023-04-15T00:30:51;102453.19;;;2.89;53.05
40908;BME280;51055;59.436;24.778;2023-04-15T00:33:19;102448.78;;;2.91;52.88
40908;BME280;51055;59.436;24.778;2023-04-15T00:35:47;102460.16;;;2.90;52.45
40908;BME280;51055;59.436;24.778;2023-04-15T00:38:15;102454.13;;;2.85;52.89
40908;BME280;51055;59.436;24.778;2023-04-15T00:40:42;102460.28;;;2.84;52.83
40908;BME280;51055;59.436;24.778;2023-04-15T00:43:09;102465.47;;;2.87;52.99
40908;BME280;51055;59.436;24.778;2023-04-15T00:45:37;102453.34;;;2.81;52.43
40908;BME280;51055;59.436;24.778;2023-04-15T00:48:05;102461.16;;;2.83;52.88
40908;BME280;51055;59.436;24.778;2023-04-15T00:50:33;102454.13;;;2.86;52.83
40908;BME280;51055;59.436;24.778;2023-04-15T00:53:00;102456.75;;;2.85;52.43
40908;BME280;51055;59.436;24.778;2023-04-15T00:55:28;102456.75;;;2.85;52.59
40908;BME280;51055;59.436;24.778;2023-04-15T00:57:56;102458.59;;;2.81;52.64
40908;BME280;51055;59.436;24.778;2023-04-15T01:00:24;102449.19;;;2.70;52.71
40908;BME280;51055;59.436;24.778;2023-04-15T01:02:51;102457.88;;;2.73;52.32
40908;BME280;51055;59.436;24.778;2023-04-15T01:05:19;102457.84;;;2.75;52.26
40908;BME280;51055;59.436;24.778;2023-04-15T01:07:47;102456.19;;;2.71;52.76
40908;BME280;51055;59.436;24.778;2023-04-15T01:10:15;102459.69;;;2.70;52.41
40908;BME280;51055;59.436;24.778;2023-04-15T01:12:43;102460.50;;;2.72;52.40
40908;BME280;51055;59.436;24.778;2023-04-15T01:15:11;102454.50;;;2.68;52.58
40908;BME280;51055;59.436;24.778;2023-04-15T01:17:38;102458.75;;;2.74;52.19
40908;BME280;51055;59.436;24.778;2023-04-15T01:20:07;102458.75;;;2.74;52.18
40908;BME280;51055;59.436;24.778;2023-04-15T01:22:37;102466.59;;;2.74;51.98
40908;BME280;51055;59.436;24.778;2023-04-15T01:25:08;102457.06;;;2.70;52.31
40908;BME280;51055;59.436;24.778;2023-04-15T01:27:38;102461.41;;;2.71;52.15
40908;BME280;51055;59.436;24.778;2023-04-15T01:30:09;102462.28;;;2.71;52.26
40908;BME280;51055;59.436;24.778;2023-04-15T01:32:37;102457.00;;;2.74;51.90
40908;BME280;51055;59.436;24.778;2023-04-15T01:35:05;102458.81;;;2.71;51.77
40908;BME280;51055;59.436;24.778;2023-04-15T01:37:34;102458.75;;;2.74;51.60
40908;BME280;51055;59.436;24.778;2023-04-15T01:40:01;102451.88;;;2.67;51.86
40908;BME280;51055;59.436;24.778;2023-04-15T01:42:30;102458.88;;;2.68;51.57
40908;BME280;51055;59.436;24.778;2023-04-15T01:44:57;102467.53;;;2.70;51.78
40908;BME280;51055;59.436;24.778;2023-04-15T01:47:25;102464.88;;;2.73;51.17
40908;BME280;51055;59.436;24.778;2023-04-15T01:49:53;102467.47;;;2.74;51.04
40908;BME280;51055;59.436;24.778;2023-04-15T01:52:21;102468.41;;;2.70;51.44
40908;BME280;51055;59.436;24.778;2023-04-15T01:54:49;102463.19;;;2.69;51.11
40908;BME280;51055;59.436;24.778;2023-04-15T01:57:17;102466.75;;;2.66;51.39
40908;BME280;51055;59.436;24.778;2023-04-15T01:59:44;102467.59;;;2.67;51.19
40908;BME280;51055;59.436;24.778;2023-04-15T02:02:12;102471.00;;;2.72;51.28
40908;BME280;51055;59.436;24.778;2023-04-15T02:04:40;102470.97;;;2.73;51.32
40908;BME280;51055;59.436;24.778;2023-04-15T02:07:08;102471.09;;;2.67;51.20
40908;BME280;51055;59.436;24.778;2023-04-15T02:09:35;102469.22;;;2.74;51.04
40908;BME280;51055;59.436;24.778;2023-04-15T02:12:04;102470.97;;;2.73;50.55
40908;BME280;51055;59.436;24.778;2023-04-15T02:14:32;102472.78;;;2.71;50.92
40908;BME280;51055;59.436;24.778;2023-04-15T02:16:59;102467.47;;;2.73;51.03
40908;BME280;51055;59.436;24.778;2023-04-15T02:19:34;102468.38;;;2.72;51.13
40908;BME280;51055;59.436;24.778;2023-04-15T02:22:02;102473.59;;;2.72;50.97
40908;BME280;51055;59.436;24.778;2023-04-15T02:24:29;102470.09;;;2.73;50.52
40908;BME280;51055;59.436;24.778;2023-04-15T02:26:57;102480.56;;;2.74;50.93
40908;BME280;51055;59.436;24.778;2023-04-15T02:29:25;102474.47;;;2.74;50.96
40908;BME280;51055;59.436;24.778;2023-04-15T02:31:53;102480.47;;;2.79;50.31
40908;BME280;51055;59.436;24.778;2023-04-15T02:34:20;102476.16;;;2.76;50.50
40908;BME280;51055;59.436;24.778;2023-04-15T02:36:48;102477.91;;;2.76;50.27
40908;BME280;51055;59.436;24.778;2023-04-15T02:39:16;102480.53;;;2.76;50.37
40908;BME280;51055;59.436;24.778;2023-04-15T02:41:45;102477.94;;;2.74;50.46
40908;BME280;51055;59.436;24.778;2023-04-15T02:44:18;102472.66;;;2.76;50.55
40908;BME280;51055;59.436;24.778;2023-04-15T02:46:47;102480.50;;;2.77;50.03
40908;BME280;51055;59.436;24.778;2023-04-15T02:49:17;102473.56;;;2.75;50.16
40908;BME280;51055;59.436;24.778;2023-04-15T02:51:45;102472.66;;;2.77;49.99
40908;BME280;51055;59.436;24.778;2023-04-15T02:54:18;102473.50;;;2.78;50.12
40908;BME280;51055;59.436;24.778;2023-04-15T02:56:46;102471.72;;;2.78;50.11
40908;BME280;51055;59.436;24.778;2023-04-15T02:59:14;102472.66;;;2.76;50.10
40908;BME280;51055;59.436;24.778;2023-04-15T03:01:42;102474.25;;;2.84;49.62
40908;BME280;51055;59.436;24.778;2023-04-15T03:04:10;102475.97;;;2.85;49.56
40908;BME280;51055;59.436;24.778;2023-04-15T03:06:38;102469.03;;;2.83;49.49
40908;BME280;51055;59.436;24.778;2023-04-15T03:09:06;102471.56;;;2.87;49.08
40908;BME280;51055;59.436;24.778;2023-04-15T03:11:34;102479.44;;;2.87;49.40
40908;BME280;51055;59.436;24.778;2023-04-15T03:14:02;102484.75;;;2.84;49.32
40908;BME280;51055;59.436;24.778;2023-04-15T03:16:30;102477.69;;;2.88;49.29
40908;BME280;51055;59.436;24.778;2023-04-15T03:18:57;102478.56;;;2.87;49.18
40908;BME280;51055;59.436;24.778;2023-04-15T03:21:25;102488.16;;;2.88;49.23
40908;BME280;51055;59.436;24.778;2023-04-15T03:23:53;102485.63;;;2.83;49.00
40908;BME280;51055;59.436;24.778;2023-04-15T03:26:39;102491.69;;;2.85;49.66
40908;BME280;51055;59.436;24.778;2023-04-15T03:29:06;102498.69;;;2.85;49.19
40908;BME280;51055;59.436;24.778;2023-04-15T03:31:34;102493.38;;;2.89;49.22
40908;BME280;51055;59.436;24.778;2023-04-15T03:34:02;102500.34;;;2.90;49.03
40908;BME280;51055;59.436;24.778;2023-04-15T03:36:30;102508.22;;;2.90;48.80
40908;BME280;51055;59.436;24.778;2023-04-15T03:38:59;102500.28;;;2.93;48.89
40908;BME280;51055;59.436;24.778;2023-04-15T03:41:28;102503.66;;;2.98;48.86
40908;BME280;51055;59.436;24.778;2023-04-15T03:43:56;102506.28;;;2.98;48.27
40908;BME280;51055;59.436;24.778;2023-04-15T03:46:23;102514.13;;;3.00;48.77
40908;BME280;51055;59.436;24.778;2023-04-15T03:48:52;102513.13;;;3.05;48.57
40908;BME280;51055;59.436;24.778;2023-04-15T03:51:19;102514.00;;;3.07;48.58
40908;BME280;51055;59.436;24.778;2023-04-15T03:53:47;102512.09;;;3.14;48.24
40908;BME280;51055;59.436;24.778;2023-04-15T03:56:14;102509.41;;;3.17;48.05
40908;BME280;51055;59.436;24.778;2023-04-15T03:58:42;102512.00;;;3.19;48.05
40908;BME280;51055;59.436;24.778;2023-04-15T04:01:09;102508.50;;;3.20;47.85
40908;BME280;51055;59.436;24.778;2023-04-15T04:03:38;102504.97;;;3.21;47.85
40908;BME280;51055;59.436;24.778;2023-04-15T04:06:05;102506.59;;;3.26;47.87
40908;BME280;51055;59.436;24.778;2023-04-15T04:08:33;102516.13;;;3.30;47.34
40908;BME280;51055;59.436;24.778;2023-04-15T04:11:01;102509.88;;;3.36;47.70
40908;BME280;51055;59.436;24.778;2023-04-15T04:13:29;102506.41;;;3.35;47.14
40908;BME280;51055;59.436;24.778;2023-04-15T04:15:56;102505.53;;;3.35;47.33
40908;BME280;51055;59.436;24.778;2023-04-15T04:18:25;102513.31;;;3.39;47.47
40908;BME280;51055;59.436;24.778;2023-04-15T04:20:52;102505.38;;;3.42;47.15
40908;BME280;51055;59.436;24.778;2023-04-15T04:23:20;102510.56;;;3.45;47.11
40908;BME280;51055;59.436;24.778;2023-04-15T04:25:47;102517.41;;;3.52;46.92
40908;BME280;51055;59.436;24.778;2023-04-15T04:28:15;102511.28;;;3.52;46.70
40908;BME280;51055;59.436;24.778;2023-04-15T04:30:43;102514.72;;;3.54;46.77
40908;BME280;51055;59.436;24.778;2023-04-15T04:33:10;102512.91;;;3.57;46.47
40908;BME280;51055;59.436;24.778;2023-04-15T04:35:37;102514.59;;;3.60;46.37
40908;BME280;51055;59.436;24.778;2023-04-15T04:38:05;102512.69;;;3.66;46.21
40908;BME280;51055;59.436;24.778;2023-04-15T04:40:33;102511.66;;;3.74;46.32
40908;BME280;51055;59.436;24.778;2023-04-15T04:43:01;102515.94;;;3.79;46.30
40908;BME280;51055;59.436;24.778;2023-04-15T04:45:28;102512.47;;;3.77;46.35
40908;BME280;51055;59.436;24.778;2023-04-15T04:47:56;102515.84;;;3.82;46.36
40908;BME280;51055;59.436;24.778;2023-04-15T04:50:24;102512.31;;;3.83;45.78
40908;BME280;51055;59.436;24.778;2023-04-15T04:52:52;102511.19;;;3.95;46.25
40908;BME280;51055;59.436;24.778;2023-04-15T04:55:20;102513.81;;;3.93;45.84
40908;BME280;51055;59.436;24.778;2023-04-15T04:57:48;102526.78;;;4.01;45.98
40908;BME280;51055;59.436;24.778;2023-04-15T05:00:17;102516.19;;;4.05;45.51
40908;BME280;51055;59.436;24.778;2023-04-15T05:02:45;102520.50;;;4.08;45.16
40908;BME280;51055;59.436;24.778;2023-04-15T05:05:13;102525.50;;;4.17;45.46
40908;BME280;51055;59.436;24.778;2023-04-15T05:07:41;102521.75;;;4.29;44.85
40908;BME280;51055;59.436;24.778;2023-04-15T05:10:09;102526.63;;;4.42;44.77
40908;BME280;51055;59.436;24.778;2023-04-15T05:12:37;102530.97;;;4.45;44.74
40908;BME280;51055;59.436;24.778;2023-04-15T05:15:05;102515.94;;;4.50;44.30
40908;BME280;51055;59.436;24.778;2023-04-15T05:17:33;102520.94;;;4.59;44.84
40908;BME280;51055;59.436;24.778;2023-04-15T05:20:02;102520.63;;;4.71;44.86
40908;BME280;51055;59.436;24.778;2023-04-15T05:22:30;102517.94;;;4.74;44.47
40908;BME280;51055;59.436;24.778;2023-04-15T05:24:57;102523.53;;;4.93;44.04
40908;BME280;51055;59.436;24.778;2023-04-15T05:27:25;102511.97;;;5.00;43.66
40908;BME280;51055;59.436;24.778;2023-04-15T05:29:53;102519.19;;;5.22;43.51
40908;BME280;51055;59.436;24.778;2023-04-15T05:32:21;102512.09;;;5.24;43.03
40908;BME280;51055;59.436;24.778;2023-04-15T05:34:48;102524.47;;;5.21;43.39
40908;BME280;51055;59.436;24.778;2023-04-15T05:37:16;102521.59;;;5.30;43.10
40908;BME280;51055;59.436;24.778;2023-04-15T05:39:44;102528.09;;;5.48;42.56
40908;BME280;51055;59.436;24.778;2023-04-15T05:42:12;102523.72;;;5.47;42.11
40908;BME280;51055;59.436;24.778;2023-04-15T05:44:40;102525.59;;;5.72;42.29
40908;BME280;51055;59.436;24.778;2023-04-15T05:47:07;102524.66;;;5.73;41.78
40908;BME280;51055;59.436;24.778;2023-04-15T05:49:36;102531.38;;;5.84;41.45
40908;BME280;51055;59.436;24.778;2023-04-15T05:52:04;102525.31;;;5.82;42.24
40908;BME280;51055;59.436;24.778;2023-04-15T05:54:32;102523.41;;;5.87;41.29
40908;BME280;51055;59.436;24.778;2023-04-15T05:57:00;102526.00;;;5.88;41.85
40908;BME280;51055;59.436;24.778;2023-04-15T05:59:28;102517.34;;;5.83;41.86
40908;BME280;51055;59.436;24.778;2023-04-15T06:01:56;102525.19;;;6.14;41.73
40908;BME280;51055;59.436;24.778;2023-04-15T06:04:24;102522.03;;;6.29;40.73
40908;BME280;51055;59.436;24.778;2023-04-15T06:06:52;102525.09;;;6.43;40.37
40908;BME280;51055;59.436;24.778;2023-04-15T06:09:20;102534.72;;;6.44;40.69
40908;BME280;51055;59.436;24.778;2023-04-15T06:11:48;102529.06;;;6.55;40.72
40908;BME280;51055;59.436;24.778;2023-04-15T06:14:16;102527.66;;;6.45;40.44
40908;BME280;51055;59.436;24.778;2023-04-15T06:16:43;102532.09;;;6.44;40.72
40908;BME280;51055;59.436;24.778;2023-04-15T06:19:11;102531.91;;;6.49;40.49
40908;BME280;51055;59.436;24.778;2023-04-15T06:21:39;102528.91;;;6.84;40.35
40908;BME280;51055;59.436;24.778;2023-04-15T06:24:07;102538.13;;;6.97;39.90
40908;BME280;51055;59.436;24.778;2023-04-15T06:26:34;102537.19;;;7.00;40.11
40908;BME280;51055;59.436;24.778;2023-04-15T06:29:02;102532.31;;;7.12;39.42
40908;BME280;51055;59.436;24.778;2023-04-15T06:31:30;102541.78;;;7.18;38.82
40908;BME280;51055;59.436;24.778;2023-04-15T06:33:58;102540.75;;;7.45;39.03
40908;BME280;51055;59.436;24.778;2023-04-15T06:36:25;102541.78;;;7.64;38.26
40908;BME280;51055;59.436;24.778;2023-04-15T06:38:53;102541.06;;;7.82;37.89
40908;BME280;51055;59.436;24.778;2023-04-15T06:41:20;102540.50;;;9.02;35.52
40908;BME280;51055;59.436;24.778;2023-04-15T06:43:48;102532.66;;;9.39;34.57
40908;BME280;51055;59.436;24.778;2023-04-15T06:46:15;102539.47;;;9.24;34.91
40908;BME280;51055;59.436;24.778;2023-04-15T06:48:44;102533.75;;;8.95;35.08
40908;BME280;51055;59.436;24.778;2023-04-15T06:51:12;102533.59;;;9.18;34.89
40908;BME280;51055;59.436;24.778;2023-04-15T06:53:40;102534.91;;;9.47;34.37
40908;BME280;51055;59.436;24.778;2023-04-15T06:56:10;102533.31;;;9.24;34.73
40908;BME280;51055;59.436;24.778;2023-04-15T06:58:38;102536.16;;;8.60;36.00
40908;BME280;51055;59.436;24.778;2023-04-15T07:01:05;102538.44;;;8.68;36.41
40908;BME280;51055;59.436;24.778;2023-04-15T07:03:33;102535.75;;;8.89;36.44
40908;BME280;51055;59.436;24.778;2023-04-15T07:06:01;102536.81;;;9.24;35.56
40908;BME280;51055;59.436;24.778;2023-04-15T07:08:32;102535.88;;;9.46;34.97
40908;BME280;51055;59.436;24.778;2023-04-15T07:11:00;102535.41;;;10.11;34.40
40908;BME280;51055;59.436;24.778;2023-04-15T07:13:30;102532.25;;;10.03;34.15
40908;BME280;51055;59.436;24.778;2023-04-15T07:15:58;102532.34;;;10.01;34.01
40908;BME280;51055;59.436;24.778;2023-04-15T07:18:26;102538.47;;;9.27;34.99
40908;BME280;51055;59.436;24.778;2023-04-15T07:20:54;102551.94;;;9.22;35.57
40908;BME280;51055;59.436;24.778;2023-04-15T07:23:22;102541.97;;;10.02;34.54
40908;BME280;51055;59.436;24.778;2023-04-15T07:25:50;102541.69;;;10.27;33.83
40908;BME280;51055;59.436;24.778;2023-04-15T07:28:18;102546.28;;;10.40;33.33
40908;BME280;51055;59.436;24.778;2023-04-15T07:30:46;102538.31;;;11.42;32.14
40908;BME280;51055;59.436;24.778;2023-04-15T07:33:15;102535.31;;;12.72;30.87
40908;BME280;51055;59.436;24.778;2023-04-15T07:35:42;102548.84;;;13.27;29.62
40908;BME280;51055;59.436;24.778;2023-04-15T07:38:11;102540.53;;;12.73;29.53
40908;BME280;51055;59.436;24.778;2023-04-15T07:40:40;102543.88;;;12.47;29.75
40908;BME280;51055;59.436;24.778;2023-04-15T07:43:09;102549.44;;;12.28;30.00
40908;BME280;51055;59.436;24.778;2023-04-15T07:45:37;102555.22;;;11.08;31.28
40908;BME280;51055;59.436;24.778;2023-04-15T07:48:04;102543.84;;;11.22;31.87
40908;BME280;51055;59.436;24.778;2023-04-15T07:50:33;102541.53;;;11.16;32.31
40908;BME280;51055;59.436;24.778;2023-04-15T07:53:01;102547.34;;;11.55;31.04
40908;BME280;51055;59.436;24.778;2023-04-15T07:55:28;102543.34;;;12.11;30.69
40908;BME280;51055;59.436;24.778;2023-04-15T07:57:57;102540.47;;;12.75;29.90
40908;BME280;51055;59.436;24.778;2023-04-15T08:00:24;102547.22;;;12.50;29.64
40908;BME280;51055;59.436;24.778;2023-04-15T08:02:56;102543.53;;;11.28;31.13
40908;BME280;51055;59.436;24.778;2023-04-15T08:05:25;102540.38;;;11.04;31.59
40908;BME280;51055;59.436;24.778;2023-04-15T08:07:53;102546.16;;;10.95;31.88
40908;BME280;51055;59.436;24.778;2023-04-15T08:10:21;102541.13;;;11.06;31.58
40908;BME280;51055;59.436;24.778;2023-04-15T08:12:48;102538.38;;;10.75;31.14
40908;BME280;51055;59.436;24.778;2023-04-15T08:15:16;102539.13;;;10.94;31.38
40908;BME280;51055;59.436;24.778;2023-04-15T08:17:44;102542.31;;;11.18;31.27
40908;BME280;51055;59.436;24.778;2023-04-15T08:20:12;102541.88;;;10.75;31.57
40908;BME280;51055;59.436;24.778;2023-04-15T08:22:41;102548.25;;;9.82;32.32
40908;BME280;51055;59.436;24.778;2023-04-15T08:25:09;102546.25;;;9.87;32.66
40908;BME280;51055;59.436;24.778;2023-04-15T08:27:36;102538.38;;;9.67;32.98
40908;BME280;51055;59.436;24.778;2023-04-15T08:30:05;102548.78;;;9.33;32.74
40908;BME280;51055;59.436;24.778;2023-04-15T08:32:33;102540.06;;;9.50;32.96
40908;BME280;51055;59.436;24.778;2023-04-15T08:35:01;102538.72;;;9.78;32.62
40908;BME280;51055;59.436;24.778;2023-04-15T08:37:28;102546.94;;;9.72;32.13
40908;BME280;51055;59.436;24.778;2023-04-15T08:39:56;102540.78;;;9.90;32.02
40908;BME280;51055;59.436;24.778;2023-04-15T08:42:30;102537.41;;;10.06;31.76
40908;BME280;51055;59.436;24.778;2023-04-15T08:45:03;102543.66;;;9.86;31.13
40908;BME280;51055;59.436;24.778;2023-04-15T08:47:32;102541.78;;;9.69;31.60
40908;BME280;51055;59.436;24.778;2023-04-15T08:50:02;102544.44;;;10.07;36.09
40908;BME280;51055;59.436;24.778;2023-04-15T08:52:30;102536.97;;;10.15;33.24
40908;BME280;51055;59.436;24.778;2023-04-15T08:54:59;102538.84;;;9.94;34.65
40908;BME280;51055;59.436;24.778;2023-04-15T08:57:28;102536.22;;;10.11;39.74
40908;BME280;51055;59.436;24.778;2023-04-15T08:59:56;102534.44;;;10.12;40.16
40908;BME280;51055;59.436;24.778;2023-04-15T09:02:25;102539.84;;;9.91;40.09
40908;BME280;51055;59.436;24.778;2023-04-15T09:04:54;102537.56;;;9.84;34.92
40908;BME280;51055;59.436;24.778;2023-04-15T09:07:21;102537.19;;;9.91;32.51
40908;BME280;51055;59.436;24.778;2023-04-15T09:09:49;102538.19;;;9.89;30.67
40908;BME280;51055;59.436;24.778;2023-04-15T09:12:17;102534.69;;;9.88;30.37
40908;BME280;51055;59.436;24.778;2023-04-15T09:14:45;102533.63;;;9.92;30.33
40908;BME280;51055;59.436;24.778;2023-04-15T09:17:17;102533.53;;;10.13;37.12
40908;BME280;51055;59.436;24.778;2023-04-15T09:19:46;102530.50;;;10.02;39.01
40908;BME280;51055;59.436;24.778;2023-04-15T09:22:14;102532.97;;;10.06;39.09
40908;BME280;51055;59.436;24.778;2023-04-15T09:24:41;102534.13;;;10.01;39.66
40908;BME280;51055;59.436;24.778;2023-04-15T09:27:09;102535.50;;;9.90;39.75
40908;BME280;51055;59.436;24.778;2023-04-15T09:29:40;102530.81;;;9.95;40.29
40908;BME280;51055;59.436;24.778;2023-04-15T09:32:11;102528.09;;;9.78;40.38
40908;BME280;51055;59.436;24.778;2023-04-15T09:34:39;102539.16;;;9.69;40.43
40908;BME280;51055;59.436;24.778;2023-04-15T09:37:07;102530.13;;;9.73;40.84
40908;BME280;51055;59.436;24.778;2023-04-15T09:39:50;102530.34;;;9.50;40.97
40908;BME280;51055;59.436;24.778;2023-04-15T09:42:18;102527.53;;;9.53;40.40
40908;BME280;51055;59.436;24.778;2023-04-15T09:44:53;102528.91;;;9.43;40.28
40908;BME280;51055;59.436;24.778;2023-04-15T09:47:30;102530.47;;;9.47;41.35
40908;BME280;51055;59.436;24.778;2023-04-15T09:49:59;102542.91;;;9.26;40.48
40908;BME280;51055;59.436;24.778;2023-04-15T09:52:28;102525.31;;;9.25;40.98
40908;BME280;51055;59.436;24.778;2023-04-15T09:54:57;102518.72;;;9.15;40.58
40908;BME280;51055;59.436;24.778;2023-04-15T09:57:33;102521.94;;;9.22;41.05
40908;BME280;51055;59.436;24.778;2023-04-15T10:00:04;102519.34;;;9.20;41.59
40908;BME280;51055;59.436;24.778;2023-04-15T10:02:34;102521.88;;;9.23;41.55
40908;BME280;51055;59.436;24.778;2023-04-15T10:05:02;102518.34;;;9.23;41.38
40908;BME280;51055;59.436;24.778;2023-04-15T10:07:31;102514.63;;;9.27;41.50
40908;BME280;51055;59.436;24.778;2023-04-15T10:09:59;102515.50;;;9.27;42.20
40908;BME280;51055;59.436;24.778;2023-04-15T10:12:30;102525.19;;;9.28;43.22
40908;BME280;51055;59.436;24.778;2023-04-15T10:15:03;102521.66;;;9.28;42.46
40908;BME280;51055;59.436;24.778;2023-04-15T10:17:34;102514.59;;;9.47;34.62
40908;BME280;51055;59.436;24.778;2023-04-15T10:20:04;102506.00;;;9.42;38.03
40908;BME280;51055;59.436;24.778;2023-04-15T10:22:32;102519.25;;;9.42;42.79
40908;BME280;51055;59.436;24.778;2023-04-15T10:25:01;102524.19;;;9.31;45.49
40908;BME280;51055;59.436;24.778;2023-04-15T10:27:30;102508.00;;;9.37;34.21
40908;BME280;51055;59.436;24.778;2023-04-15T10:29:59;102514.69;;;9.46;37.27
40908;BME280;51055;59.436;24.778;2023-04-15T10:32:30;102527.06;;;9.45;43.36
40908;BME280;51055;59.436;24.778;2023-04-15T10:34:58;102519.16;;;9.43;44.47
40908;BME280;51055;59.436;24.778;2023-04-15T10:37:37;102521.47;;;9.51;38.60
40908;BME280;51055;59.436;24.778;2023-04-15T10:42:55;102516.28;;;9.85;29.93
40908;BME280;51055;59.436;24.778;2023-04-15T10:45:28;102507.97;;;9.93;29.77
40908;BME280;51055;59.436;24.778;2023-04-15T10:48:01;102507.38;;;10.05;29.03
40908;BME280;51055;59.436;24.778;2023-04-15T10:50:30;102511.91;;;10.03;29.22
40908;BME280;51055;59.436;24.778;2023-04-15T10:53:02;102516.56;;;10.17;28.05
40908;BME280;51055;59.436;24.778;2023-04-15T10:55:31;102520.13;;;10.16;28.28
40908;BME280;51055;59.436;24.778;2023-04-15T10:58:01;102508.09;;;10.09;28.18
40908;BME280;51055;59.436;24.778;2023-04-15T11:00:30;102520.41;;;10.10;28.97
40908;BME280;51055;59.436;24.778;2023-04-15T11:03:04;102503.88;;;10.23;28.48
40908;BME280;51055;59.436;24.778;2023-04-15T11:08:16;102512.06;;;10.36;28.13
40908;BME280;51055;59.436;24.778;2023-04-15T11:15:48;102511.75;;;10.42;27.15
40908;BME280;51055;59.436;24.778;2023-04-15T11:18:16;102497.47;;;10.44;27.54
40908;BME280;51055;59.436;24.778;2023-04-15T11:20:47;102506.63;;;10.56;31.77
40908;BME280;51055;59.436;24.778;2023-04-15T11:23:18;102497.63;;;10.41;38.26
40908;BME280;51055;59.436;24.778;2023-04-15T11:25:46;102511.66;;;10.26;39.42
40908;BME280;51055;59.436;24.778;2023-04-15T11:28:15;102505.50;;;10.26;39.53
40908;BME280;51055;59.436;24.778;2023-04-15T11:30:43;102515.56;;;10.19;39.97
40908;BME280;51055;59.436;24.778;2023-04-15T11:33:11;102506.88;;;10.16;40.62
40908;BME280;51055;59.436;24.778;2023-04-15T11:35:40;102507.59;;;10.19;38.71
40908;BME280;51055;59.436;24.778;2023-04-15T11:38:10;102506.97;;;10.31;40.08
40908;BME280;51055;59.436;24.778;2023-04-15T11:40:38;102500.38;;;10.40;41.75
40908;BME280;51055;59.436;24.778;2023-04-15T11:45:53;102500.44;;;10.38;29.52
40908;BME280;51055;59.436;24.778;2023-04-15T11:48:27;102500.28;;;10.41;29.06
40908;BME280;51055;59.436;24.778;2023-04-15T11:51:02;102492.97;;;10.47;29.11
40908;BME280;51055;59.436;24.778;2023-04-15T11:53:49;102500.06;;;10.46;29.16
40908;BME280;51055;59.436;24.778;2023-04-15T11:56:24;102500.44;;;10.56;28.91
40908;BME280;51055;59.436;24.778;2023-04-15T11:58:54;102499.19;;;10.63;29.46
40908;BME280;51055;59.436;24.778;2023-04-15T12:01:36;102495.19;;;10.71;28.89
40908;BME280;51055;59.436;24.778;2023-04-15T12:04:14;102487.22;;;10.71;28.81
40908;BME280;51055;59.436;24.778;2023-04-15T12:06:44;102496.66;;;10.77;29.46
40908;BME280;51055;59.436;24.778;2023-04-15T12:09:13;102484.75;;;10.68;29.27
40908;BME280;51055;59.436;24.778;2023-04-15T12:11:47;102481.44;;;10.80;28.63
40908;BME280;51055;59.436;24.778;2023-04-15T12:16:57;102479.91;;;10.76;28.88
40908;BME280;51055;59.436;24.778;2023-04-15T12:19:38;102474.44;;;10.79;28.74
40908;BME280;51055;59.436;24.778;2023-04-15T12:22:13;102477.03;;;10.96;28.54
40908;BME280;51055;59.436;24.778;2023-04-15T12:24:42;102474.84;;;11.05;28.92
40908;BME280;51055;59.436;24.778;2023-04-15T12:27:11;102474.84;;;11.05;34.24
40908;BME280;51055;59.436;24.778;2023-04-15T12:29:41;102482.25;;;10.82;38.48
40908;BME280;51055;59.436;24.778;2023-04-15T12:32:15;102469.59;;;10.70;39.16
40908;BME280;51055;59.436;24.778;2023-04-15T12:34:50;102479.75;;;10.62;39.84
40908;BME280;51055;59.436;24.778;2023-04-15T12:37:18;102470.88;;;10.46;39.65
40908;BME280;51055;59.436;24.778;2023-04-15T12:39:47;102469.09;;;10.47;40.32
40908;BME280;51055;59.436;24.778;2023-04-15T12:42:16;102477.97;;;10.63;39.68
40908;BME280;51055;59.436;24.778;2023-04-15T12:44:45;102478.84;;;10.46;39.21
40908;BME280;51055;59.436;24.778;2023-04-15T12:47:13;102477.09;;;10.45;39.61
40908;BME280;51055;59.436;24.778;2023-04-15T12:49:40;102480.84;;;10.58;39.79
40908;BME280;51055;59.436;24.778;2023-04-15T12:52:08;102471.25;;;10.38;39.13
40908;BME280;51055;59.436;24.778;2023-04-15T12:54:36;102480.69;;;10.27;40.02
40908;BME280;51055;59.436;24.778;2023-04-15T12:57:04;102486.59;;;10.15;39.71
40908;BME280;51055;59.436;24.778;2023-04-15T12:59:34;102483.88;;;10.16;40.21
40908;BME280;51055;59.436;24.778;2023-04-15T13:02:03;102480.38;;;9.97;40.84
40908;BME280;51055;59.436;24.778;2023-04-15T13:04:31;102485.28;;;9.87;41.38
40908;BME280;51055;59.436;24.778;2023-04-15T13:06:58;102482.38;;;9.75;41.52
40908;BME280;51055;59.436;24.778;2023-04-15T13:09:26;102485.69;;;9.61;42.47
40908;BME280;51055;59.436;24.778;2023-04-15T13:11:54;102487.38;;;9.62;43.09